Impacts TAF Board
For situational awareness. Not to be used for flight planning purposes.
IDs:

KEWN - New Bern/Coastal Car, NC, US

Issued at 0537 UTC 22 Oct 2021
Updated at 0748 UTC 22 Oct 2021
Potential Impact None Slight Moderate High
Time0654Z 22/08Z 22/09Z 22/10Z 22/11Z 22/12Z 22/13Z 22/14Z 22/15Z 22/16Z 22/17Z 22/18Z 22/19Z 22/20Z>>
Type OBS PRVL PRVL PRVL PRVL PRVL PRVL PRVL PRVL PRVL PRVL PRVL PRVL PRVL
VIS 10 >6 >6 >6 >6 >6 >6 >6 >6 >6 >6 >6 >6 >6
CIG -- -- -- -- -- -- -- 40 40 40 40 40 40 --
Cover CLR SCT SCT SCT SCT SCT SCT BKN BKN BKN BKN BKN BKN SCT
FltCat VFR VFR VFR VFR VFR VFR VFR VFR VFR VFR VFR VFR VFR VFR
WX -- -- -- -- -- -- -- -- -- -- -- -- -- VCSH
WDir 200 210 210 210 210 210 210 220 220 220 220 220 220 210
WSpd 5 7 7 7 7 7 7 8 8 8 8 8 8 8
WGst -- -- -- -- -- -- -- 15 15 15 15 15 15 --
Raw TAF
KEWN 220537Z 2206/2306 21007KT P6SM SCT080
  FM221400 22008G15KT P6SM BKN040
  FM222000 21008KT P6SM VCSH SCT040


Raw METAR
KEWN 220654Z AUTO 20005KT 10SM CLR 18/16 A3003 RMK AO2 SLP168 T01780161
KEWN 220554Z AUTO 22005KT 10SM CLR 18/16 A3005 RMK AO2 SLP175 T01780161 10200 20178 58009
KEWN 220454Z AUTO 22005KT 10SM CLR 18/16 A3006 RMK AO2 SLP179 T01830161 402670122

METAR Board
Radar Display
Forecast Discussion
For situational awareness. Not to be used for flight planning purposes.